Time;durP1;ratioP1;P1;durP2;ratioP2;P2;SDS_P1;SDS_P2;PMS_P1;PMS_P2;Temp;Humidity;BMP_temperature;BMP_pressure;BME280_temperature;BME280_humidity;BME280_pressure;Samples;Min_cycle;Max_cycle;Signal;HPM_P1;HPM_P2
2022/10/19 00:02:17;;;;;;;26.57;9.90;;;;;;;10.95;58.92;99997.88;1691660;83;21583;-65
2022/10/19 00:04:43;;;;;;;17.05;9.68;;;;;;;10.92;59.15;100000.14;1691548;84;21141;-64
2022/10/19 00:07:11;;;;;;;26.62;9.83;;;;;;;10.88;59.54;99992.42;1691845;84;21054;-63
2022/10/19 00:09:37;;;;;;;22.82;9.43;;;;;;;10.83;59.64;99983.86;1691932;83;21079;-66
2022/10/19 00:12:05;;;;;;;21.00;10.45;;;;;;;10.78;60.01;99983.19;1691817;84;21503;-65
2022/10/19 00:14:33;;;;;;;29.52;10.50;;;;;;;10.70;60.28;99979.09;1692251;83;21245;-66
2022/10/19 00:17:00;;;;;;;29.27;10.45;;;;;;;10.66;60.55;99973.54;1691874;84;22051;-64
2022/10/19 00:19:28;;;;;;;23.02;9.85;;;;;;;10.62;60.73;99967.14;1691844;84;21524;-66
2022/10/19 00:21:56;;;;;;;27.27;10.58;;;;;;;10.58;60.93;99969.48;1691811;83;21039;-66
2022/10/19 00:24:22;;;;;;;26.90;10.98;;;;;;;10.55;61.13;99964.36;1718252;82;21125;-65
2022/10/19 00:26:49;;;;;;;23.57;10.70;;;;;;;10.52;61.34;99964.02;1726020;82;21042;-65
2022/10/19 00:29:16;;;;;;;29.45;9.88;;;;;;;10.48;61.53;99954.52;1725950;82;21037;-65
2022/10/19 00:31:42;;;;;;;25.40;10.15;;;;;;;10.44;61.56;99948.97;1691050;84;21056;-65
2022/10/19 00:34:09;;;;;;;23.95;11.03;;;;;;;10.38;61.66;99946.13;1673459;85;21547;-65
2022/10/19 00:36:39;;;;;;;23.83;11.03;;;;;;;10.33;62.08;99932.73;1673655;85;21629;-64
2022/10/19 00:39:08;;;;;;;22.22;9.90;;;;;;;10.29;62.36;99938.59;1673411;85;21280;-65
2022/10/19 00:41:35;;;;;;;23.52;10.58;;;;;;;10.23;62.72;99927.80;1673586;85;21582;-65
2022/10/19 00:44:19;;;;;;;26.48;10.55;;;;;;;10.18;63.00;99919.70;1673540;85;21128;-64
2022/10/19 00:46:49;;;;;;;23.07;9.95;;;;;;;10.13;63.20;99914.61;1646102;87;21622;-65
2022/10/19 00:49:25;;;;;;;17.52;8.25;;;;;;;10.08;63.62;99909.99;1646357;87;21125;-65
2022/10/19 00:51:54;;;;;;;28.90;10.70;;;;;;;10.03;64.05;99904.02;1646256;86;21138;-66
2022/10/19 00:54:21;;;;;;;20.97;10.63;;;;;;;10.00;64.59;99901.52;1646448;87;21600;-64
2022/10/19 00:56:50;;;;;;;22.05;10.55;;;;;;;9.96;64.88;99892.91;1646374;87;21101;-64
2022/10/19 00:59:20;;;;;;;20.35;10.63;;;;;;;9.91;65.11;99895.30;1646546;87;21118;-64
2022/10/19 01:01:47;;;;;;;18.23;8.00;;;;;;;9.87;65.40;99882.73;1666386;85;21113;-66
2022/10/19 01:04:14;;;;;;;23.47;10.15;;;;;;;9.83;65.97;99890.34;1673474;85;21495;-65
2022/10/19 01:06:42;;;;;;;27.37;10.68;;;;;;;9.77;66.29;99878.26;1661617;86;21033;-64
2022/10/19 01:09:09;;;;;;;25.92;11.30;;;;;;;9.75;66.63;99881.40;1661594;86;21068;-64
2022/10/19 01:11:54;;;;;;;22.00;10.88;;;;;;;9.71;66.76;99875.88;1661630;86;21008;-65
2022/10/19 01:14:34;;;;;;;25.45;11.38;;;;;;;9.71;67.01;99872.37;1673671;85;21426;-64
2022/10/19 01:17:12;;;;;;;21.65;10.38;;;;;;;9.67;67.41;99871.64;1673252;85;21217;-65
2022/10/19 01:20:25;;;;;;;28.17;11.15;;;;;;;9.66;67.65;99864.66;1661839;86;21040;-64
2022/10/19 01:23:15;;;;;;;25.17;11.00;;;;;;;9.61;68.29;99864.82;1673663;85;21102;-64
2022/10/19 01:26:27;;;;;;;29.77;12.00;;;;;;;9.58;68.57;99859.69;1666076;85;21012;-66
2022/10/19 01:29:02;;;;;;;30.10;12.07;;;;;;;9.57;68.71;99859.73;1665693;86;21050;-64
2022/10/19 01:31:41;;;;;;;27.40;12.00;;;;;;;9.54;69.46;99858.55;1649828;87;21172;-65
2022/10/19 01:34:22;;;;;;;29.07;11.33;;;;;;;9.52;69.78;99856.42;1713199;83;21014;-64
2022/10/19 01:37:03;;;;;;;28.47;12.55;;;;;;;9.51;70.35;99850.78;1698787;83;21050;-64
2022/10/19 01:39:57;;;;;;;27.13;11.05;;;;;;;9.49;70.61;99848.67;1712671;82;21034;-64
2022/10/19 01:42:35;;;;;;;21.48;10.95;;;;;;;9.50;70.74;99851.68;1713042;83;21074;-64
2022/10/19 01:45:11;;;;;;;23.70;9.88;;;;;;;9.47;71.33;99841.29;1712896;82;21091;-63
2022/10/19 01:47:59;;;;;;;26.60;10.72;;;;;;;9.47;71.53;99834.72;1710515;82;21119;-64
2022/10/19 01:50:37;;;;;;;34.35;11.75;;;;;;;9.48;71.40;99839.05;1713047;82;21043;-64
2022/10/19 01:53:05;;;;;;;29.57;11.38;;;;;;;9.45;71.71;99833.45;1712774;83;21031;-64
2022/10/19 01:55:33;;;;;;;31.85;12.23;;;;;;;9.42;72.24;99830.95;1713082;83;21031;-64
2022/10/19 01:58:04;;;;;;;35.35;12.75;;;;;;;9.41;72.08;99826.62;1712875;83;21375;-65
2022/10/19 02:00:30;;;;;;;;;;;;;;;9.40;72.45;99821.80;1715204;83;21034;-65
2022/10/19 02:02:58;;;;;;;33.92;11.95;;;;;;;9.39;72.87;99827.13;1712839;83;20174;-64
2022/10/19 02:05:29;;;;;;;28.40;11.57;;;;;;;9.37;73.30;99823.23;1712932;82;21062;-65
2022/10/19 02:08:00;;;;;;;30.45;11.75;;;;;;;9.36;73.69;99810.14;1713345;82;22159;-64
2022/10/19 02:10:27;;;;;;;26.60;11.63;;;;;;;9.37;73.88;99814.03;1713105;83;21771;-64
2022/10/19 02:12:55;;;;;;;28.60;12.20;;;;;;;9.39;74.00;99816.16;1712760;83;21100;-63
2022/10/19 02:15:24;;;;;;;22.52;11.25;;;;;;;9.40;73.85;99815.23;1702667;83;21065;-66
2022/10/19 02:17:54;;;;;;;21.95;10.93;;;;;;;9.40;74.14;99813.06;1713315;83;21058;-65
2022/10/19 02:20:20;;;;;;;28.38;11.57;;;;;;;9.39;74.21;99809.58;1713290;83;21034;-64
2022/10/19 02:22:47;;;;;;;22.58;11.73;;;;;;;9.38;74.30;99799.97;1712997;83;21569;-64
2022/10/19 02:25:15;;;;;;;25.65;11.55;;;;;;;9.38;74.80;99802.59;1723859;83;21104;-64
2022/10/19 02:27:42;;;;;;;28.12;12.60;;;;;;;9.38;74.73;99807.85;1725794;83;21482;-65
2022/10/19 02:30:13;;;;;;;29.42;12.23;;;;;;;9.38;74.78;99802.59;1725701;82;21053;-66
2022/10/19 02:32:40;;;;;;;28.45;12.25;;;;;;;9.36;75.23;99806.20;1726017;83;21131;-64
2022/10/19 02:35:07;;;;;;;34.10;12.18;;;;;;;9.31;75.90;99799.80;1725836;83;21182;-64
2022/10/19 02:37:34;;;;;;;26.55;11.85;;;;;;;9.31;76.30;99797.63;1726004;83;21939;-65
2022/10/19 02:40:01;;;;;;;38.23;12.63;;;;;;;9.30;76.10;99805.13;1726024;82;21608;-65
2022/10/19 02:42:45;;;;;;;25.17;11.93;;;;;;;9.29;75.74;99809.97;1725862;83;21041;-64
2022/10/19 02:45:28;;;;;;;23.05;11.90;;;;;;;9.26;76.10;99807.00;1721168;82;20996;-65
2022/10/19 02:48:07;;;;;;;26.05;11.73;;;;;;;9.23;75.98;99804.50;1726320;82;21579;-65
2022/10/19 02:50:34;;;;;;;26.93;12.00;;;;;;;9.17;76.09;99802.94;1726167;83;21042;-64
2022/10/19 02:53:01;;;;;;;22.73;10.55;;;;;;;9.09;76.39;99807.62;1726009;83;21059;-64
2022/10/19 02:55:29;;;;;;;27.45;12.47;;;;;;;9.05;77.17;99802.08;1726110;83;20999;-64
2022/10/19 02:57:56;;;;;;;25.65;12.33;;;;;;;8.99;78.00;99808.39;1725876;82;21062;-65
2022/10/19 03:00:23;;;;;;;26.12;12.10;;;;;;;8.94;78.38;99805.53;1726079;83;21572;-65
2022/10/19 03:02:51;;;;;;;26.15;12.30;;;;;;;8.89;78.43;99811.41;1725805;83;21068;-66
2022/10/19 03:05:18;;;;;;;25.15;13.13;;;;;;;8.87;78.70;99811.45;1725939;81;21056;-64
2022/10/19 03:07:45;;;;;;;28.75;12.75;;;;;;;8.84;79.38;99810.73;1725987;83;21117;-65
2022/10/19 03:10:16;;;;;;;25.17;12.85;;;;;;;8.83;79.82;99803.28;1726083;83;21213;-65
2022/10/19 03:12:43;;;;;;;24.82;12.60;;;;;;;8.81;82.31;99802.47;1725816;83;21240;-65
2022/10/19 03:15:14;;;;;;;24.12;12.90;;;;;;;8.86;83.15;99798.37;1725849;83;21078;-65
2022/10/19 03:17:42;;;;;;;26.85;12.93;;;;;;;8.86;83.89;99795.31;1725529;82;21025;-65
2022/10/19 03:20:09;;;;;;;34.58;12.93;;;;;;;8.92;85.59;99795.54;1725791;83;21092;-65
2022/10/19 03:22:36;;;;;;;25.70;12.85;;;;;;;9.00;87.34;99793.05;1725692;83;21080;-65
2022/10/19 03:25:03;;;;;;;23.45;12.50;;;;;;;9.06;87.96;99784.53;1717760;83;21244;-64
2022/10/19 03:27:30;;;;;;;31.10;12.68;;;;;;;9.15;88.52;99789.45;1712732;82;21034;-64
2022/10/19 03:29:59;;;;;;;27.90;13.18;;;;;;;9.22;88.67;99777.80;1712793;83;21042;-65
2022/10/19 03:32:25;;;;;;;28.15;13.13;;;;;;;9.30;89.05;99781.02;1712886;83;21027;-64
2022/10/19 03:34:52;;;;;;;28.42;12.98;;;;;;;9.39;89.00;99780.67;1712831;83;21042;-65
2022/10/19 03:37:19;;;;;;;27.62;13.50;;;;;;;9.48;89.24;99766.33;1712793;83;21260;-64
2022/10/19 03:39:46;;;;;;;28.30;14.87;;;;;;;9.63;91.37;99759.61;1713177;83;21057;-65
2022/10/19 03:42:12;;;;;;;25.77;13.60;;;;;;;9.78;90.85;99766.91;1712807;83;21001;-65
2022/10/19 03:44:40;;;;;;;30.45;15.28;;;;;;;9.90;92.17;99766.02;1712864;82;21067;-65
2022/10/19 03:47:07;;;;;;;25.72;14.28;;;;;;;10.05;91.33;99751.80;1712925;82;21075;-64
2022/10/19 03:49:34;;;;;;;28.30;14.93;;;;;;;10.16;90.51;99758.38;1713095;83;21297;-65
2022/10/19 03:52:01;;;;;;;33.63;14.47;;;;;;;10.25;89.98;99752.73;1712765;83;21047;-64
2022/10/19 03:54:27;;;;;;;32.53;14.25;;;;;;;10.33;90.41;99752.44;1712884;83;22007;-64
2022/10/19 03:56:54;;;;;;;30.05;14.45;;;;;;;10.45;89.94;99750.16;1712901;83;21024;-66
2022/10/19 03:59:23;;;;;;;29.30;14.68;;;;;;;10.53;90.56;99737.12;1713102;83;21118;-65
2022/10/19 04:01:49;;;;;;;28.40;15.03;;;;;;;10.63;90.40;99740.62;1713295;83;21855;-64
2022/10/19 04:04:17;;;;;;;23.87;13.35;;;;;;;10.68;90.39;99747.84;1712872;82;21134;-65
2022/10/19 04:06:47;;;;;;;26.95;14.20;;;;;;;10.77;90.32;99751.86;1713247;83;21064;-64
2022/10/19 04:09:17;;;;;;;29.02;13.60;;;;;;;10.87;90.36;99737.82;1713078;83;21127;-65
2022/10/19 04:11:44;;;;;;;23.47;13.08;;;;;;;10.92;89.57;99743.73;1713268;83;21012;-66
2022/10/19 04:14:17;;;;;;;27.93;13.22;;;;;;;10.96;89.07;99747.09;1712938;83;21632;-64
2022/10/19 04:16:44;;;;;;;25.05;13.78;;;;;;;10.99;89.61;99750.44;1713227;82;21094;-66
2022/10/19 04:19:13;;;;;;;29.80;14.38;;;;;;;11.04;89.56;99747.59;1713194;83;21039;-65
2022/10/19 04:21:42;;;;;;;28.27;14.65;;;;;;;11.05;90.47;99754.59;1713381;83;21094;-66
2022/10/19 04:24:14;;;;;;;37.95;15.88;;;;;;;11.07;91.45;99753.59;1713838;82;21110;-65
2022/10/19 04:26:47;;;;;;;34.98;15.55;;;;;;;11.13;93.03;99758.59;1720623;83;21214;-65
2022/10/19 04:29:16;;;;;;;27.87;15.03;;;;;;;11.19;92.80;99761.41;1720541;82;21130;-64
2022/10/19 04:31:42;;;;;;;28.40;14.83;;;;;;;11.23;92.66;99764.30;1720617;83;22156;-65
2022/10/19 04:34:09;;;;;;;29.02;14.65;;;;;;;11.27;92.29;99759.73;1720536;83;21019;-65
2022/10/19 04:36:35;;;;;;;31.52;15.85;;;;;;;11.33;91.97;99771.31;1720483;82;21590;-65
2022/10/19 04:39:04;;;;;;;29.32;14.90;;;;;;;11.36;91.71;99767.22;1720573;83;21131;-65
2022/10/19 04:41:32;;;;;;;30.92;15.60;;;;;;;11.39;91.57;99764.45;1720521;83;21071;-66
2022/10/19 04:44:00;;;;;;;24.07;13.58;;;;;;;11.37;91.17;99761.03;1720415;83;21074;-65
2022/10/19 04:46:28;;;;;;;30.88;14.45;;;;;;;11.38;91.15;99762.73;1693044;82;21602;-64
2022/10/19 04:48:57;;;;;;;27.35;13.88;;;;;;;11.38;91.27;99773.27;1691612;83;21047;-66
2022/10/19 04:51:25;;;;;;;27.32;13.95;;;;;;;11.41;91.30;99774.47;1691745;83;21859;-65
2022/10/19 04:53:52;;;;;;;28.05;15.00;;;;;;;11.42;90.88;99776.17;1691701;83;21027;-65
2022/10/19 04:56:21;;;;;;;26.70;13.43;;;;;;;11.46;90.97;99777.74;1691592;84;21021;-64
2022/10/19 04:58:47;;;;;;;22.50;12.90;;;;;;;11.46;91.37;99771.16;1691794;84;21512;-64
2022/10/19 05:01:20;;;;;;;25.75;14.38;;;;;;;11.47;91.52;99764.94;1691590;84;22094;-65
2022/10/19 05:03:47;;;;;;;27.90;14.75;;;;;;;11.47;91.97;99728.49;1691636;84;22356;-65
2022/10/19 05:06:15;;;;;;;32.30;17.62;;;;;;;11.47;92.93;99766.26;1691526;84;22032;-65
2022/10/19 05:08:41;;;;;;;33.78;16.27;;;;;;;11.47;93.31;99769.36;1691650;83;21086;-65
2022/10/19 05:11:11;;;;;;;27.05;15.25;;;;;;;11.47;94.11;99775.95;1691702;84;21032;-64
2022/10/19 05:13:39;;;;;;;;;;;;;;;11.45;94.83;99776.48;1694445;84;21039;-66
2022/10/19 05:16:13;;;;;;;31.77;16.93;;;;;;;11.44;96.32;99791.45;1691832;83;21156;-65
2022/10/19 05:18:40;;;;;;;30.85;16.67;;;;;;;11.43;97.32;99798.95;1691809;84;21078;-65
2022/10/19 05:21:09;;;;;;;32.50;17.77;;;;;;;11.37;98.17;99799.27;1691851;83;21606;-65
2022/10/19 05:23:37;;;;;;;34.75;17.15;;;;;;;11.35;99.30;99810.34;1691923;83;21028;-65
2022/10/19 05:26:16;;;;;;;32.25;17.07;;;;;;;11.32;100.00;99811.34;1707710;82;21640;-66
2022/10/19 05:28:55;;;;;;;32.88;16.75;;;;;;;11.31;100.00;99821.47;1712780;82;21674;-66
2022/10/19 05:31:23;;;;;;;30.80;16.07;;;;;;;11.29;100.00;99826.42;1712900;82;21041;-65
2022/10/19 05:33:50;;;;;;;34.30;16.50;;;;;;;11.29;100.00;99833.01;1712806;83;21089;-67
2022/10/19 05:36:25;;;;;;;31.33;17.02;;;;;;;11.29;100.00;99835.64;1712892;82;21605;-64
2022/10/19 05:38:53;;;;;;;31.00;16.35;;;;;;;11.28;100.00;99811.54;1712964;83;21078;-66
2022/10/19 05:41:20;;;;;;;30.35;17.02;;;;;;;11.28;100.00;99820.30;1712967;83;21203;-65
2022/10/19 05:43:47;;;;;;;30.85;16.23;;;;;;;11.30;100.00;99825.52;1712811;83;21065;-67
2022/10/19 05:46:18;;;;;;;31.25;16.55;;;;;;;11.31;100.00;99843.03;1712972;83;21064;-64
2022/10/19 05:48:46;;;;;;;34.13;16.42;;;;;;;11.29;100.00;99834.33;1713074;83;21059;-65
2022/10/19 05:51:16;;;;;;;27.25;14.73;;;;;;;11.30;100.00;99833.42;1713145;83;22057;-64
2022/10/19 05:53:44;;;;;;;27.62;15.43;;;;;;;11.32;100.00;99836.84;1713309;83;21071;-66
2022/10/19 05:56:17;;;;;;;24.45;14.13;;;;;;;11.36;100.00;99844.14;1713141;83;21126;-65
2022/10/19 05:58:45;;;;;;;22.60;12.98;;;;;;;11.40;100.00;99832.07;1713266;83;21096;-65
2022/10/19 06:01:13;;;;;;;24.00;12.18;;;;;;;11.43;100.00;99831.07;1713059;83;21642;-65
2022/10/19 06:03:40;;;;;;;18.80;11.28;;;;;;;11.45;100.00;99829.22;1712933;83;21059;-66
2022/10/19 06:06:08;;;;;;;19.57;11.00;;;;;;;11.46;100.00;99829.16;1712814;83;21536;-65
2022/10/19 06:08:36;;;;;;;13.75;8.23;;;;;;;11.51;100.00;99834.23;1713036;83;21505;-65
2022/10/19 06:11:13;;;;;;;18.05;10.08;;;;;;;11.55;100.00;99836.66;1712887;82;21126;-66
2022/10/19 06:13:43;;;;;;;20.97;9.65;;;;;;;11.60;100.00;99843.52;1712930;82;21536;-66
2022/10/19 06:16:11;;;;;;;19.37;9.15;;;;;;;11.64;100.00;99846.38;1713083;82;21087;-66
2022/10/19 06:18:38;;;;;;;16.30;8.30;;;;;;;11.67;100.00;99848.89;1713204;83;21779;-66
2022/10/19 06:21:08;;;;;;;11.65;7.20;;;;;;;11.69;100.00;99848.36;1712765;83;21555;-65
2022/10/19 06:23:35;;;;;;;13.13;7.12;;;;;;;11.71;100.00;99863.63;1713093;83;21622;-65
2022/10/19 06:26:04;;;;;;;8.85;5.92;;;;;;;11.71;100.00;99871.10;1717451;82;21558;-64
2022/10/19 06:28:31;;;;;;;9.23;5.67;;;;;;;11.74;100.00;99872.73;1720590;83;21063;-65
2022/10/19 06:30:58;;;;;;;11.28;5.95;;;;;;;11.76;100.00;99874.38;1720947;83;21180;-66
2022/10/19 06:33:26;;;;;;;10.23;5.03;;;;;;;11.80;100.00;99869.83;1720554;83;21562;-66
2022/10/19 06:35:53;;;;;;;8.95;4.80;;;;;;;11.83;100.00;99867.04;1720787;82;21055;-66
2022/10/19 06:39:30;;;;;;;7.80;3.80;;;;;;;11.81;100.00;99871.53;1796787;79;23271;-66
2022/10/19 06:41:57;;;;;;;8.35;3.47;;;;;;;11.79;100.00;99879.97;1756390;80;21038;-66
2022/10/19 06:44:26;;;;;;;9.73;4.33;;;;;;;11.84;100.00;99881.92;1756366;81;21293;-66
2022/10/19 06:46:52;;;;;;;5.87;3.17;;;;;;;11.90;100.00;99883.01;1756372;81;21576;-65
2022/10/19 06:49:19;;;;;;;5.78;3.33;;;;;;;11.97;100.00;99887.54;1756238;81;21600;-65
2022/10/19 06:51:46;;;;;;;5.92;3.60;;;;;;;12.03;100.00;99892.98;1756216;81;21055;-66
2022/10/19 06:54:15;;;;;;;4.70;3.00;;;;;;;12.06;100.00;99891.07;1756096;81;21112;-67
2022/10/19 06:56:42;;;;;;;5.58;3.17;;;;;;;12.07;100.00;99886.64;1756326;81;21229;-66
2022/10/19 06:59:11;;;;;;;6.25;2.85;;;;;;;12.09;100.00;99892.70;1756109;81;21024;-66
2022/10/19 07:01:38;;;;;;;7.47;3.30;;;;;;;12.08;100.00;99891.01;1756458;81;21053;-66
2022/10/19 07:04:04;;;;;;;3.90;2.72;;;;;;;12.10;100.00;99898.36;1752434;81;21041;-66
2022/10/19 07:06:32;;;;;;;5.08;3.02;;;;;;;12.14;100.00;99913.14;1747987;82;21054;-65
2022/10/19 07:08:58;;;;;;;6.75;3.25;;;;;;;12.13;100.00;99906.16;1747966;82;21224;-65
2022/10/19 07:11:25;;;;;;;3.83;2.95;;;;;;;12.14;100.00;99903.89;1748058;82;21513;-65
2022/10/19 07:13:51;;;;;;;7.65;2.52;;;;;;;12.16;100.00;99906.00;1748390;82;22231;-65
2022/10/19 07:16:18;;;;;;;5.28;2.90;;;;;;;12.18;100.00;99900.19;1748400;81;21014;-66
2022/10/19 07:18:45;;;;;;;3.37;2.22;;;;;;;12.18;100.00;99900.19;1748099;82;21077;-65
2022/10/19 07:21:14;;;;;;;9.70;3.47;;;;;;;12.20;100.00;99900.98;1748155;81;21042;-65
2022/10/19 07:23:42;;;;;;;8.20;2.50;;;;;;;12.20;100.00;99899.66;1748199;82;21029;-66
2022/10/19 07:26:21;;;;;;;5.25;2.35;;;;;;;12.21;100.00;99905.31;1748018;82;21077;-66
2022/10/19 07:28:49;;;;;;;4.05;2.05;;;;;;;12.23;99.48;99902.14;1747935;82;21065;-66
2022/10/19 07:31:19;;;;;;;6.25;2.08;;;;;;;12.28;98.40;99910.69;1748184;82;21029;-67
2022/10/19 07:33:53;;;;;;;3.87;2.08;;;;;;;12.32;98.05;99907.45;1748244;82;21193;-66
2022/10/19 07:36:20;;;;;;;2.52;1.90;;;;;;;12.34;97.72;99906.92;1747961;82;21069;-65
2022/10/19 07:38:47;;;;;;;3.00;1.95;;;;;;;12.39;97.00;99896.52;1740724;81;21046;-65
2022/10/19 07:41:16;;;;;;;3.85;1.77;;;;;;;12.53;96.25;99905.56;1746097;82;21057;-66
2022/10/19 07:43:44;;;;;;;3.08;2.50;;;;;;;12.73;95.67;99902.80;1748682;82;21017;-67
2022/10/19 07:46:22;;;;;;;4.70;1.80;;;;;;;13.03;93.82;99900.88;1749137;82;21105;-66
2022/10/19 07:48:49;;;;;;;2.47;1.65;;;;;;;13.39;90.53;99894.67;1748733;82;21597;-66
2022/10/19 07:51:17;;;;;;;6.35;1.77;;;;;;;13.77;87.88;99889.96;1748158;82;21084;-65
2022/10/19 07:53:44;;;;;;;2.70;1.65;;;;;;;14.11;85.24;99889.92;1747977;82;21522;-67
2022/10/19 07:56:22;;;;;;;4.25;1.90;;;;;;;14.35;82.70;99895.63;1748370;82;21585;-65
2022/10/19 07:58:49;;;;;;;4.83;2.02;;;;;;;14.46;81.62;99892.75;1747942;82;21189;-66
2022/10/19 08:01:19;;;;;;;5.22;2.00;;;;;;;14.51;80.57;99890.32;1748303;82;21069;-66
2022/10/19 08:03:46;;;;;;;4.67;1.62;;;;;;;14.54;79.99;99892.78;1748029;82;21092;-66
2022/10/19 08:06:15;;;;;;;4.12;2.30;;;;;;;14.54;79.43;99887.48;1748400;82;21057;-66
2022/10/19 08:08:43;;;;;;;8.25;2.05;;;;;;;14.52;79.07;99886.75;1748370;82;21076;-65
2022/10/19 08:11:25;;;;;;;3.33;2.12;;;;;;;14.47;79.06;99887.86;1748155;82;21232;-67
2022/10/19 08:13:52;;;;;;;6.08;2.40;;;;;;;14.39;79.13;99894.53;1747757;82;21065;-66
2022/10/19 08:16:38;;;;;;;3.40;2.05;;;;;;;14.20;79.67;99899.53;1748176;82;21065;-66
2022/10/19 08:19:08;;;;;;;5.40;2.85;;;;;;;14.04;80.40;99896.03;1747832;82;21069;-66
2022/10/19 08:21:35;;;;;;;4.20;2.30;;;;;;;13.95;80.75;99893.41;1748235;82;21072;-67
2022/10/19 08:24:04;;;;;;;5.30;2.52;;;;;;;13.87;81.35;99882.38;1748046;82;22104;-65
2022/10/19 08:26:34;;;;;;;4.00;2.85;;;;;;;13.69;81.42;99876.75;1747817;82;21043;-66
2022/10/19 08:29:06;;;;;;;4.08;2.60;;;;;;;13.55;82.39;99876.17;1747938;82;21089;-65
2022/10/19 08:31:33;;;;;;;11.30;2.72;;;;;;;13.48;83.23;99878.31;1747733;82;21049;-66
2022/10/19 08:34:03;;;;;;;6.92;2.80;;;;;;;13.43;83.87;99885.17;1747944;82;21100;-66
2022/10/19 08:36:31;;;;;;;3.60;2.70;;;;;;;13.40;85.37;99887.11;1748374;82;21592;-65
2022/10/19 08:38:58;;;;;;;5.60;2.62;;;;;;;13.36;86.09;99885.55;1748171;82;21105;-65
2022/10/19 08:42:03;;;;;;;7.12;3.17;;;;;;;13.30;86.92;99876.16;1747902;82;21624;-65
2022/10/19 08:45:08;;;;;;;5.15;3.17;;;;;;;13.26;86.58;99888.27;1744221;82;21108;-65
2022/10/19 08:48:21;;;;;;;4.53;3.02;;;;;;;13.21;87.12;99882.75;1718244;83;21092;-66
2022/10/19 08:50:48;;;;;;;4.78;2.55;;;;;;;13.27;87.81;99884.67;1718386;83;21254;-64
2022/10/19 08:53:25;;;;;;;11.68;3.98;;;;;;;13.37;86.78;99887.28;1718176;83;21140;-65
2022/10/19 08:56:20;;;;;;;7.47;2.90;;;;;;;13.42;86.86;99875.98;1718283;83;21011;-65
2022/10/19 08:59:13;;;;;;;6.67;3.35;;;;;;;13.47;86.11;99879.70;1718050;83;21013;-67
2022/10/19 09:02:03;;;;;;;4.62;2.60;;;;;;;13.54;85.82;99880.61;1718215;83;21020;-67
2022/10/19 09:04:34;;;;;;;6.80;2.40;;;;;;;13.73;84.01;99876.98;1717957;83;21530;-67
2022/10/19 09:07:28;;;;;;;3.22;1.75;;;;;;;13.92;83.48;99886.97;1718048;83;21061;-67
2022/10/19 09:10:12;;;;;;;4.65;2.02;;;;;;;14.07;81.97;99886.58;1717873;83;21018;-67
2022/10/19 09:13:01;;;;;;;22.65;3.92;;;;;;;14.32;81.12;99883.42;1718022;83;21084;-65
2022/10/19 09:15:45;;;;;;;5.20;1.90;;;;;;;14.36;77.91;99871.72;1718337;83;21060;-67
2022/10/19 09:18:21;;;;;;;4.45;2.05;;;;;;;14.46;77.96;99884.80;1718259;83;21779;-65
2022/10/19 09:20:52;;;;;;;5.67;1.50;;;;;;;14.43;77.95;99888.97;1718381;83;21466;-66
2022/10/19 09:23:27;;;;;;;4.00;1.83;;;;;;;14.36;77.52;99890.26;1718496;83;21057;-67
2022/10/19 09:25:53;;;;;;;8.98;2.00;;;;;;;14.22;77.26;99892.84;1718302;83;21120;-66
2022/10/19 09:28:42;;;;;;;14.13;2.50;;;;;;;14.08;77.71;99879.48;1718192;83;21060;-65
2022/10/19 09:31:15;;;;;;;5.42;1.80;;;;;;;13.95;78.57;99887.27;1717999;83;21261;-65
2022/10/19 09:33:41;;;;;;;9.68;1.95;;;;;;;13.85;78.68;99885.59;1716949;83;21135;-65
2022/10/19 09:36:10;;;;;;;6.75;2.30;;;;;;;13.80;78.74;99881.88;1717847;83;22237;-65
2022/10/19 09:38:37;;;;;;;2.90;2.05;;;;;;;13.87;78.71;99881.05;1717994;83;21033;-65
2022/10/19 09:41:14;;;;;;;5.40;1.80;;;;;;;13.97;78.80;99867.70;1718068;83;21016;-65
2022/10/19 09:43:49;;;;;;;8.38;2.45;;;;;;;14.12;78.44;99881.03;1718274;83;21950;-66
2022/10/19 09:46:19;;;;;;;5.42;1.98;;;;;;;14.35;77.58;99872.64;1718193;83;21112;-64
2022/10/19 09:48:51;;;;;;;29.35;4.08;;;;;;;14.54;75.77;99875.56;1718194;83;21081;-67
2022/10/19 09:51:19;;;;;;;5.83;2.40;;;;;;;14.64;75.18;99868.36;1718369;83;21053;-66
2022/10/19 09:53:49;;;;;;;9.48;1.85;;;;;;;14.68;74.45;99865.08;1718337;83;21116;-66
2022/10/19 09:56:24;;;;;;;8.63;2.00;;;;;;;14.70;74.28;99865.84;1718115;83;21168;-66
2022/10/19 09:58:56;;;;;;;4.22;1.82;;;;;;;14.63;74.21;99852.09;1718314;83;21069;-65
2022/10/19 10:01:32;;;;;;;4.33;1.77;;;;;;;14.60;73.99;99855.38;1718711;83;20997;-66
2022/10/19 10:04:16;;;;;;;11.88;2.15;;;;;;;14.61;74.32;99846.50;1718124;83;21025;-64
2022/10/19 10:06:47;;;;;;;8.38;2.37;;;;;;;14.64;74.12;99851.61;1718582;83;21073;-66
2022/10/19 10:09:25;;;;;;;5.78;2.02;;;;;;;14.64;74.34;99854.27;1718363;83;21104;-65
2022/10/19 10:11:53;;;;;;;5.42;1.90;;;;;;;14.63;73.93;99855.19;1718210;83;21049;-67
2022/10/19 10:14:30;;;;;;;3.25;2.15;;;;;;;14.60;73.97;99858.02;1718485;83;20991;-64
2022/10/19 10:17:04;;;;;;;4.47;2.17;;;;;;;14.53;73.77;99860.62;1718540;83;21116;-66
2022/10/19 10:19:32;;;;;;;4.37;1.90;;;;;;;14.44;73.95;99857.54;1718266;83;21049;-64
2022/10/19 10:21:59;;;;;;;3.65;1.92;;;;;;;14.42;74.28;99849.30;1718398;83;21206;-66
2022/10/19 10:24:28;;;;;;;6.17;2.20;;;;;;;14.43;74.62;99851.88;1718269;83;21050;-65
2022/10/19 10:27:02;;;;;;;5.60;1.90;;;;;;;14.49;74.23;99846.68;1718497;83;21633;-65
2022/10/19 10:29:33;;;;;;;4.55;2.10;;;;;;;14.58;74.11;99838.70;1718467;83;21061;-66
2022/10/19 10:32:12;;;;;;;4.80;2.10;;;;;;;14.80;73.65;99837.84;1718229;83;21116;-66
2022/10/19 10:34:43;;;;;;;7.55;2.20;;;;;;;15.19;72.52;99831.57;1692734;83;21223;-65
2022/10/19 10:37:28;;;;;;;4.92;2.52;;;;;;;15.48;69.75;99824.00;1718453;83;21033;-66
2022/10/19 10:39:57;;;;;;;6.83;2.35;;;;;;;15.61;68.65;99825.39;1721940;82;21549;-67
2022/10/19 10:42:42;;;;;;;4.40;2.15;;;;;;;15.70;67.96;99827.50;1718477;83;21568;-66
2022/10/19 10:45:19;;;;;;;4.53;2.20;;;;;;;15.63;68.24;99832.79;1730295;82;21096;-66
2022/10/19 10:47:47;;;;;;;3.08;2.00;;;;;;;15.53;68.60;99821.91;1748155;81;21132;-65
2022/10/19 10:50:24;;;;;;;5.37;2.30;;;;;;;15.47;68.87;99818.78;1748024;82;21284;-65
2022/10/19 10:53:03;;;;;;;6.35;2.12;;;;;;;15.43;68.99;99818.58;1746723;82;21073;-66
2022/10/19 10:55:31;;;;;;;6.12;2.60;;;;;;;15.29;69.03;99821.61;1743422;82;21002;-65
2022/10/19 10:58:21;;;;;;;5.12;2.40;;;;;;;15.16;69.35;99819.34;1748000;82;21497;-66
2022/10/19 11:00:48;;;;;;;4.45;2.17;;;;;;;15.14;70.20;99817.27;1745918;82;21268;-65
2022/10/19 11:03:32;;;;;;;7.45;1.98;;;;;;;15.28;69.68;99815.94;1747866;82;21116;-66
2022/10/19 11:05:57;;;;;;;6.53;2.60;;;;;;;15.39;69.77;99804.67;1747270;82;21045;-66
2022/10/19 11:08:35;;;;;;;6.30;2.35;;;;;;;15.76;68.99;99805.49;1748425;82;21041;-68
2022/10/19 11:11:37;;;;;;;7.65;2.40;;;;;;;16.06;67.96;99799.55;1748111;82;21025;-66
2022/10/19 11:14:36;;;;;;;4.47;2.40;;;;;;;16.33;66.01;99801.34;1748069;81;21408;-67
2022/10/19 11:17:19;;;;;;;6.78;2.10;;;;;;;16.40;64.27;99798.64;1724180;82;22457;-67
2022/10/19 11:19:50;;;;;;;5.10;2.08;;;;;;;16.15;63.68;99793.64;1748215;81;20998;-64
2022/10/19 11:22:28;;;;;;;5.42;2.45;;;;;;;15.95;64.49;99788.77;1748101;82;21052;-65
2022/10/19 11:25:09;;;;;;;3.25;1.80;;;;;;;15.80;64.58;99787.94;1747892;82;21061;-64
2022/10/19 11:27:53;;;;;;;5.00;2.08;;;;;;;15.87;64.70;99780.44;1748616;82;25735;-65
2022/10/19 11:30:24;;;;;;;3.37;1.98;;;;;;;16.34;63.15;99769.84;1748379;81;21053;-65
2022/10/19 11:33:00;;;;;;;7.05;2.10;;;;;;;16.95;60.22;99761.70;1747933;82;21077;-66
2022/10/19 11:35:52;;;;;;;4.05;2.08;;;;;;;17.59;57.64;99746.13;1748363;82;21764;-65
2022/10/19 11:38:30;;;;;;;5.45;1.52;;;;;;;18.21;54.60;99746.02;1748097;82;21076;-64
2022/10/19 11:41:28;;;;;;;5.28;1.92;;;;;;;18.85;50.31;99730.11;1746221;81;21201;-66
2022/10/19 11:44:22;;;;;;;4.03;1.80;;;;;;;19.47;47.63;99726.94;1734188;82;21070;-67
2022/10/19 11:47:10;;;;;;;4.53;1.80;;;;;;;19.85;43.80;99731.05;1703244;83;21062;-66
2022/10/19 11:50:10;;;;;;;6.85;1.72;;;;;;;19.61;43.56;99728.50;1703370;84;21035;-67
2022/10/19 11:53:27;;;;;;;6.15;2.02;;;;;;;19.41;44.05;99719.41;1703178;84;21133;-65